createdAt,value
2018-11-13T00:00:30.975Z,71.70
2018-11-13T00:01:30.760Z,71.60
2018-11-13T00:02:30.805Z,71.60
2018-11-13T00:03:30.837Z,71.50
2018-11-13T00:04:30.803Z,71.70
2018-11-13T00:05:30.848Z,71.89
2018-11-13T00:06:30.921Z,71.70
2018-11-13T00:07:31.223Z,71.89
2018-11-13T00:08:30.943Z,71.89
2018-11-13T00:09:31.029Z,72.08
2018-11-13T00:10:31.069Z,72.08
2018-11-13T00:11:31.167Z,71.98
2018-11-13T00:12:31.119Z,71.79
2018-11-13T00:13:31.102Z,71.70
2018-11-13T00:14:31.437Z,71.70
2018-11-13T00:15:31.268Z,71.70
2018-11-13T00:16:31.249Z,71.70
2018-11-13T00:17:31.288Z,71.70
2018-11-13T00:18:31.264Z,71.79
2018-11-13T00:19:31.348Z,71.70
2018-11-13T00:20:31.382Z,71.70
2018-11-13T00:22:31.798Z,71.79
2018-11-13T00:23:31.480Z,71.70
2018-11-13T00:24:31.511Z,71.98
2018-11-13T00:25:31.851Z,71.70
2018-11-13T00:26:31.577Z,71.98
2018-11-13T00:27:31.616Z,72.27
2018-11-13T00:28:31.774Z,72.27
2018-11-13T00:29:32.000Z,71.89
2018-11-13T00:30:31.677Z,72.18
2018-11-13T00:31:31.754Z,72.27
2018-11-13T00:32:31.724Z,72.27
2018-11-13T00:33:31.818Z,72.47
2018-11-13T00:34:31.854Z,72.47
2018-11-13T00:35:31.879Z,72.47
2018-11-13T00:36:32.205Z,72.08
2018-11-13T00:37:31.970Z,72.18
2018-11-13T00:38:31.975Z,72.18
2018-11-13T00:39:31.963Z,72.08
2018-11-13T00:40:32.039Z,72.27
2018-11-13T00:41:32.072Z,72.47
2018-11-13T00:42:32.101Z,72.37
2018-11-13T00:43:32.443Z,72.37
2018-11-13T00:44:32.174Z,72.37
2018-11-13T00:45:32.226Z,72.47
2018-11-13T00:46:32.258Z,72.37
2018-11-13T00:47:32.269Z,72.47
2018-11-13T00:48:32.299Z,72.08
2018-11-13T00:49:32.634Z,72.37
2018-11-13T00:50:32.328Z,72.18
2018-11-13T00:51:32.352Z,72.37
2018-11-13T00:52:32.483Z,72.37
2018-11-13T00:53:32.413Z,72.27
2018-11-13T00:54:32.520Z,72.18
2018-11-13T00:55:32.783Z,72.37
2018-11-13T00:56:32.515Z,72.37
2018-11-13T00:57:32.597Z,72.37
2018-11-13T00:58:32.629Z,72.37
2018-11-13T00:59:32.844Z,72.37
2018-11-13T01:00:32.764Z,72.18
2018-11-13T01:01:32.979Z,72.18
2018-11-13T01:02:32.708Z,72.37
2018-11-13T01:03:32.792Z,72.18
2018-11-13T01:04:32.783Z,72.47
2018-11-13T01:05:33.002Z,72.08
2018-11-13T01:06:32.892Z,72.08
2018-11-13T01:07:32.913Z,72.47
2018-11-13T01:08:33.508Z,72.37
2018-11-13T01:09:32.989Z,72.27
2018-11-13T01:10:33.022Z,72.18
2018-11-13T01:11:33.104Z,72.27
2018-11-13T01:12:33.038Z,72.18
2018-11-13T01:13:33.120Z,72.18
2018-11-13T01:14:33.154Z,72.37
2018-11-13T01:15:33.436Z,72.27
2018-11-13T01:16:33.220Z,72.27
2018-11-13T01:17:33.422Z,72.18
2018-11-13T01:18:33.287Z,72.08
2018-11-13T01:19:33.331Z,72.37
2018-11-13T01:20:33.311Z,72.18
2018-11-13T01:21:33.392Z,72.37
2018-11-13T01:22:34.261Z,72.37
2018-11-13T01:23:33.519Z,72.27
2018-11-13T01:24:33.502Z,72.37
2018-11-13T01:25:33.483Z,72.08
2018-11-13T01:26:33.518Z,72.27
2018-11-13T01:27:33.600Z,72.27
2018-11-13T01:28:33.581Z,72.18
2018-11-13T01:29:33.995Z,72.27
2018-11-13T01:30:33.652Z,72.37
2018-11-13T01:31:33.735Z,72.27
2018-11-13T01:32:33.714Z,72.18
2018-11-13T01:33:33.748Z,72.37
2018-11-13T01:34:33.882Z,72.37
2018-11-13T01:35:33.865Z,72.37
2018-11-13T01:36:34.150Z,72.27
2018-11-13T01:37:33.950Z,72.27
2018-11-13T01:38:33.964Z,72.18
2018-11-13T01:39:33.946Z,72.18
2018-11-13T01:40:34.052Z,72.08
2018-11-13T01:41:34.027Z,72.08
2018-11-13T01:42:34.098Z,72.37
2018-11-13T01:43:34.376Z,72.37
2018-11-13T01:44:34.113Z,72.08
2018-11-13T01:45:34.248Z,72.27
2018-11-13T01:46:34.231Z,72.47
2018-11-13T01:47:34.205Z,72.18
2018-11-13T01:48:34.294Z,72.37
2018-11-13T01:49:34.390Z,72.37
2018-11-13T01:50:34.658Z,72.18
2018-11-13T01:51:34.344Z,72.27
2018-11-13T01:52:34.898Z,72.18
2018-11-13T01:53:34.404Z,72.27
2018-11-13T01:54:34.587Z,72.27
2018-11-13T01:55:34.472Z,72.27
2018-11-13T01:56:34.503Z,72.08
2018-11-13T01:57:34.887Z,71.98
2018-11-13T01:58:34.620Z,72.18
2018-11-13T01:59:34.752Z,71.98
2018-11-13T02:00:34.689Z,72.18
2018-11-13T02:01:34.764Z,72.37
2018-11-13T02:02:34.754Z,72.18
2018-11-13T02:03:34.799Z,72.18
2018-11-13T02:04:35.075Z,72.18
2018-11-13T02:05:34.952Z,72.27
2018-11-13T02:06:34.881Z,72.18
2018-11-13T02:07:34.864Z,72.18
2018-11-13T02:08:34.897Z,72.08
2018-11-13T02:09:34.980Z,72.47
2018-11-13T02:10:35.014Z,71.98
2018-11-13T02:11:35.295Z,72.37
2018-11-13T02:12:35.078Z,72.18
2018-11-13T02:13:35.110Z,71.98
2018-11-13T02:14:35.844Z,72.18
2018-11-13T02:15:35.127Z,72.47
2018-11-13T02:16:35.168Z,72.18
2018-11-13T02:17:35.202Z,72.08
2018-11-13T02:18:35.523Z,72.18
2018-11-13T02:19:35.258Z,72.47
2018-11-13T02:20:35.291Z,72.18
2018-11-13T02:22:35.406Z,72.18
2018-11-13T02:23:35.391Z,72.18
2018-11-13T02:24:35.432Z,72.08
2018-11-13T02:26:35.786Z,72.18
2018-11-13T02:27:35.519Z,72.18
2018-11-13T02:28:35.554Z,72.18
2018-11-13T02:30:35.618Z,72.18
2018-11-13T02:31:35.653Z,72.08
2018-11-13T02:32:35.683Z,72.08
2018-11-13T02:33:36.016Z,72.47
2018-11-13T02:34:35.749Z,72.18
2018-11-13T02:35:35.852Z,72.43
2018-11-13T02:36:35.815Z,72.37
2018-11-13T02:37:35.909Z,72.18
2018-11-13T02:38:35.878Z,72.47
2018-11-13T02:39:35.913Z,72.27
2018-11-13T02:40:36.251Z,72.37
2018-11-13T02:42:36.012Z,72.37
2018-11-13T02:43:36.047Z,72.27
2018-11-13T02:44:36.078Z,72.37
2018-11-13T02:45:36.160Z,72.08
2018-11-13T02:46:36.192Z,72.37
2018-11-13T02:47:36.475Z,72.37
2018-11-13T02:48:36.216Z,72.43
2018-11-13T02:49:36.242Z,72.18
2018-11-13T02:50:36.327Z,72.27
2018-11-13T02:51:36.304Z,72.18
2018-11-13T02:52:36.341Z,72.47
2018-11-13T02:53:36.376Z,72.47
2018-11-13T02:54:36.708Z,72.37
2018-11-13T02:55:36.436Z,72.18
2018-11-13T02:56:36.526Z,72.27
2018-11-13T02:57:36.553Z,72.37
2018-11-13T02:58:36.592Z,72.37
2018-11-13T02:59:36.618Z,72.18
2018-11-13T03:00:36.902Z,72.08
2018-11-13T03:01:36.635Z,72.18
2018-11-13T03:02:36.667Z,72.18
2018-11-13T03:03:36.760Z,72.37
2018-11-13T03:04:36.782Z,72.37
2018-11-13T03:05:36.820Z,72.18
2018-11-13T03:06:37.096Z,72.37
2018-11-13T03:07:36.832Z,72.37
2018-11-13T03:08:36.864Z,72.37
2018-11-13T03:09:36.949Z,72.18
2018-11-13T03:10:36.927Z,72.18
2018-11-13T03:11:37.019Z,72.18
2018-11-13T03:13:37.384Z,72.27
2018-11-13T03:15:37.141Z,72.27
2018-11-13T03:16:37.130Z,72.24
2018-11-13T03:17:37.213Z,72.37
2018-11-13T03:18:37.242Z,72.14
2018-11-13T03:19:37.523Z,72.24
2018-11-13T03:20:37.368Z,72.18
2018-11-13T03:21:37.349Z,72.18
2018-11-13T03:22:37.373Z,72.27
2018-11-13T03:23:37.357Z,72.27
2018-11-13T03:24:37.388Z,72.18
2018-11-13T03:25:37.477Z,72.08
2018-11-13T03:26:37.759Z,72.33
2018-11-13T03:27:37.535Z,72.24
2018-11-13T03:28:37.517Z,72.18
2018-11-13T03:29:37.612Z,72.24
2018-11-13T03:30:37.633Z,72.27
2018-11-13T03:31:37.927Z,72.37
2018-11-13T03:32:37.711Z,72.05
2018-11-13T03:33:38.047Z,72.24
2018-11-13T03:34:37.721Z,72.33
2018-11-13T03:35:37.796Z,72.24
2018-11-13T03:36:37.781Z,72.24
2018-11-13T03:37:37.962Z,72.27
2018-11-13T03:38:37.895Z,72.24
2018-11-13T03:39:37.947Z,72.14
2018-11-13T03:40:38.214Z,72.05
2018-11-13T03:42:38.029Z,72.14
2018-11-13T03:43:38.108Z,72.08
2018-11-13T03:44:38.091Z,72.14
2018-11-13T03:45:38.126Z,72.18
2018-11-13T03:46:38.107Z,72.05
2018-11-13T03:47:38.444Z,72.14
2018-11-13T03:48:38.172Z,72.14
2018-11-13T03:49:38.257Z,72.05
2018-11-13T03:50:38.294Z,72.05
2018-11-13T03:51:38.270Z,71.89
2018-11-13T03:52:38.302Z,72.14
2018-11-13T03:53:38.338Z,72.14
2018-11-13T03:54:38.720Z,72.05
2018-11-13T03:55:38.406Z,72.24
2018-11-13T03:56:38.440Z,72.05
2018-11-13T03:57:38.518Z,71.76
2018-11-13T03:58:38.501Z,71.98
2018-11-13T03:59:38.582Z,71.85
2018-11-13T04:00:38.568Z,72.05
2018-11-13T04:01:38.949Z,71.95
2018-11-13T04:03:38.716Z,72.33
2018-11-13T04:04:38.697Z,72.18
2018-11-13T04:05:38.782Z,72.24
2018-11-13T04:06:38.813Z,72.24
2018-11-13T04:07:38.844Z,72.24
2018-11-13T04:08:39.132Z,72.24
2018-11-13T04:09:38.909Z,72.24
2018-11-13T04:10:38.944Z,72.33
2018-11-13T04:11:38.931Z,72.37
2018-11-13T04:12:38.958Z,72.24
2018-11-13T04:13:39.048Z,72.14
2018-11-13T04:14:39.075Z,72.14
2018-11-13T04:15:39.407Z,72.14
2018-11-13T04:16:39.093Z,72.33
2018-11-13T04:17:39.123Z,72.24
2018-11-13T04:18:39.230Z,72.14
2018-11-13T04:19:39.239Z,72.14
2018-11-13T04:20:39.282Z,72.24
2018-11-13T04:21:39.305Z,72.24
2018-11-13T04:22:39.635Z,72.24
2018-11-13T04:23:39.370Z,72.27
2018-11-13T04:24:39.354Z,72.14
2018-11-13T04:25:39.435Z,72.37
2018-11-13T04:26:39.502Z,72.14
2018-11-13T04:27:39.453Z,72.24
2018-11-13T04:28:39.531Z,72.14
2018-11-13T04:29:39.819Z,72.33
2018-11-13T04:30:39.691Z,72.33
2018-11-13T04:31:39.583Z,72.14
2018-11-13T04:32:39.663Z,72.33
2018-11-13T04:33:39.749Z,72.24
2018-11-13T04:34:39.731Z,72.24
2018-11-13T04:35:39.760Z,72.14
2018-11-13T04:36:40.092Z,72.24
2018-11-13T04:37:39.776Z,72.14
2018-11-13T04:38:39.858Z,72.24
2018-11-13T04:39:39.841Z,72.24
2018-11-13T04:40:39.976Z,72.05
2018-11-13T04:41:40.009Z,72.24
2018-11-13T04:42:39.990Z,72.24
2018-11-13T04:43:40.280Z,72.14
2018-11-13T04:44:40.002Z,72.14
2018-11-13T04:45:40.091Z,72.24
2018-11-13T04:46:40.081Z,72.05
2018-11-13T04:47:40.164Z,72.05
2018-11-13T04:48:40.222Z,72.24
2018-11-13T04:49:40.523Z,72.24
2018-11-13T04:50:40.261Z,72.05
2018-11-13T04:51:40.305Z,72.14
2018-11-13T04:52:40.317Z,71.85
2018-11-13T04:53:40.408Z,72.14
2018-11-13T04:54:40.384Z,72.24
2018-11-13T04:55:40.670Z,72.24
2018-11-13T04:56:40.400Z,72.14
2018-11-13T04:57:40.485Z,72.14
2018-11-13T04:58:40.512Z,72.24
2018-11-13T04:59:40.500Z,72.24
2018-11-13T05:00:40.580Z,72.14
2018-11-13T05:01:40.965Z,72.14
2018-11-13T05:02:40.635Z,72.24
2018-11-13T05:03:40.680Z,72.24
2018-11-13T05:04:40.709Z,71.76
2018-11-13T05:05:40.842Z,72.14
2018-11-13T05:06:40.776Z,72.24
2018-11-13T05:07:40.761Z,72.24
2018-11-13T05:08:41.253Z,72.24
2018-11-13T05:09:40.822Z,72.14
2018-11-13T05:10:41.013Z,72.24
2018-11-13T05:11:40.889Z,72.14
2018-11-13T05:12:40.922Z,72.14
2018-11-13T05:13:41.007Z,72.24
2018-11-13T05:14:41.004Z,72.14
2018-11-13T05:15:41.322Z,72.33
2018-11-13T05:16:41.051Z,72.24
2018-11-13T05:17:41.084Z,72.14
2018-11-13T05:18:41.115Z,72.24
2018-11-13T05:19:41.210Z,72.05
2018-11-13T05:20:41.235Z,72.33
2018-11-13T05:21:41.268Z,72.33
2018-11-13T05:23:41.581Z,72.24
2018-11-13T05:24:41.335Z,72.24
2018-11-13T05:25:41.401Z,72.24
2018-11-13T05:26:41.436Z,72.24
2018-11-13T05:27:41.413Z,72.24
2018-11-13T05:28:41.498Z,72.24
2018-11-13T05:29:41.540Z,72.24
2018-11-13T05:30:41.861Z,72.24
2018-11-13T05:31:41.542Z,72.24
2018-11-13T05:32:41.585Z,72.14
2018-11-13T05:33:41.657Z,72.14
2018-11-13T05:34:41.701Z,72.14
2018-11-13T05:35:41.681Z,72.24
2018-11-13T05:36:41.759Z,72.05
2018-11-13T05:37:42.090Z,72.05
2018-11-13T05:38:41.769Z,72.14
2018-11-13T05:39:41.853Z,71.95
2018-11-13T05:40:41.845Z,72.05
2018-11-13T05:41:42.027Z,72.05
2018-11-13T05:42:41.952Z,72.24
2018-11-13T05:43:41.937Z,72.14
2018-11-13T05:44:42.381Z,72.24
2018-11-13T05:45:42.000Z,72.14
2018-11-13T05:46:42.035Z,72.14
2018-11-13T05:47:42.123Z,72.24
2018-11-13T05:49:42.183Z,72.24
2018-11-13T05:50:42.313Z,72.14
2018-11-13T05:51:42.519Z,72.24
2018-11-13T05:52:42.228Z,72.33
2018-11-13T05:53:42.327Z,72.24
2018-11-13T05:54:42.346Z,72.33
2018-11-13T05:55:42.377Z,72.24
2018-11-13T05:56:42.361Z,72.24
2018-11-13T05:57:42.446Z,72.14
2018-11-13T05:58:42.725Z,72.24
2018-11-13T05:59:42.524Z,72.14
2018-11-13T06:00:42.542Z,72.24
2018-11-13T06:01:42.576Z,71.76
2018-11-13T06:02:42.589Z,72.24
2018-11-13T06:03:42.588Z,72.14
2018-11-13T06:04:42.694Z,72.05
2018-11-13T06:05:43.015Z,72.05
2018-11-13T06:06:42.736Z,72.24
2018-11-13T06:07:42.723Z,72.24
2018-11-13T06:08:42.918Z,72.24
2018-11-13T06:09:42.888Z,72.14
2018-11-13T06:10:42.821Z,72.05
2018-11-13T06:11:42.902Z,72.05
2018-11-13T06:12:43.200Z,72.24
2018-11-13T06:13:42.968Z,72.14
2018-11-13T06:14:42.987Z,72.24
2018-11-13T06:15:43.032Z,72.14
2018-11-13T06:16:43.065Z,72.24
2018-11-13T06:17:43.094Z,72.24
2018-11-13T06:19:43.110Z,72.24
2018-11-13T06:21:43.231Z,71.85
2018-11-13T06:22:43.260Z,72.05
2018-11-13T06:23:43.253Z,72.14
2018-11-13T06:24:43.272Z,72.24
2018-11-13T06:25:43.364Z,72.14
2018-11-13T06:26:43.386Z,72.14
2018-11-13T06:27:43.374Z,72.14
2018-11-13T06:28:43.403Z,72.14
2018-11-13T06:29:43.571Z,71.76
2018-11-13T06:32:43.587Z,72.33
2018-11-13T06:33:43.925Z,72.05
2018-11-13T06:34:43.608Z,72.33
2018-11-13T06:35:43.690Z,72.24
2018-11-13T06:36:43.663Z,72.33
2018-11-13T06:37:43.750Z,72.14
2018-11-13T06:38:43.843Z,72.05
2018-11-13T06:39:43.769Z,71.95
2018-11-13T06:40:44.145Z,72.14
2018-11-13T06:41:43.881Z,72.14
2018-11-13T06:42:43.913Z,72.14
2018-11-13T06:43:43.893Z,72.05
2018-11-13T06:44:43.928Z,72.05
2018-11-13T06:46:44.342Z,72.14
2018-11-13T06:47:44.030Z,72.14
2018-11-13T06:49:44.206Z,72.14
2018-11-13T06:50:44.171Z,72.05
2018-11-13T06:51:44.165Z,72.14
2018-11-13T06:52:44.486Z,72.14
2018-11-13T06:53:44.269Z,72.14
2018-11-13T06:54:44.317Z,72.14
2018-11-13T06:56:44.323Z,72.14
2018-11-13T06:57:44.414Z,72.24
2018-11-13T06:58:44.382Z,72.14
2018-11-13T06:59:44.467Z,72.24
2018-11-13T07:00:44.449Z,72.33
2018-11-13T07:01:44.483Z,72.24
2018-11-13T07:02:44.516Z,72.53
2018-11-13T07:03:44.597Z,72.53
2018-11-13T07:04:45.012Z,71.95
2018-11-13T07:05:44.671Z,71.95
2018-11-13T07:06:44.794Z,72.24
2018-11-13T07:07:44.674Z,72.43
2018-11-13T07:08:44.760Z,72.81
2018-11-13T07:09:44.790Z,72.72
2018-11-13T07:10:44.865Z,72.72
2018-11-13T07:11:45.106Z,72.43
2018-11-13T07:12:44.842Z,72.53
2018-11-13T07:13:44.931Z,72.72
2018-11-13T07:14:44.972Z,72.33
2018-11-13T07:15:44.987Z,72.43
2018-11-13T07:17:45.006Z,72.33
2018-11-13T07:18:45.333Z,72.63
2018-11-13T07:19:45.116Z,72.63
2018-11-13T07:20:45.148Z,72.63
2018-11-13T07:21:45.188Z,72.63
2018-11-13T07:22:45.214Z,72.43
2018-11-13T07:24:45.286Z,72.91
2018-11-13T07:25:45.562Z,72.53
2018-11-13T07:26:45.342Z,72.72
2018-11-13T07:27:45.379Z,72.72
2018-11-13T07:28:45.363Z,72.43
2018-11-13T07:29:45.445Z,72.53
2018-11-13T07:30:45.426Z,72.53
2018-11-13T07:32:45.541Z,72.72
2018-11-13T07:33:45.823Z,72.91
2018-11-13T07:34:45.555Z,72.81
2018-11-13T07:35:45.639Z,72.72
2018-11-13T07:36:45.620Z,72.33
2018-11-13T07:37:45.705Z,72.24
2018-11-13T07:38:45.700Z,72.63
2018-11-13T07:39:45.718Z,72.53
2018-11-13T07:40:46.112Z,72.63
2018-11-13T07:41:45.834Z,72.53
2018-11-13T07:42:45.820Z,72.53
2018-11-13T07:44:45.883Z,72.43
2018-11-13T07:45:45.917Z,72.14
2018-11-13T07:46:46.031Z,72.33
2018-11-13T07:47:46.508Z,72.43
2018-11-13T07:48:46.016Z,72.43
2018-11-13T07:49:46.095Z,72.14
2018-11-13T07:51:46.159Z,72.05
2018-11-13T07:52:46.142Z,72.33
2018-11-13T07:53:46.316Z,72.05
2018-11-13T07:54:46.507Z,72.05
2018-11-13T07:55:46.239Z,72.24
2018-11-13T07:56:46.326Z,72.14
2018-11-13T07:57:46.364Z,72.14
2018-11-13T07:59:46.422Z,72.05
2018-11-13T08:00:46.458Z,72.24
2018-11-13T08:01:46.748Z,72.24
2018-11-13T08:02:46.473Z,72.14
2018-11-13T08:03:46.635Z,72.24
2018-11-13T08:04:46.586Z,72.14
2018-11-13T08:05:46.683Z,72.05
2018-11-13T08:06:46.693Z,71.95
2018-11-13T08:07:46.684Z,71.95
2018-11-13T08:08:46.968Z,72.05
2018-11-13T08:09:46.698Z,71.95
2018-11-13T08:10:46.728Z,71.66
2018-11-13T08:11:46.763Z,71.66
2018-11-13T08:12:46.950Z,71.66
2018-11-13T08:13:46.878Z,71.66
2018-11-13T08:14:46.880Z,71.66
2018-11-13T08:16:47.235Z,71.56
2018-11-13T08:17:46.961Z,71.37
2018-11-13T08:18:47.043Z,71.76
2018-11-13T08:19:47.076Z,71.66
2018-11-13T08:21:47.094Z,71.95
2018-11-13T08:22:47.140Z,71.85
2018-11-13T08:23:47.468Z,72.05
2018-11-13T08:24:47.196Z,72.05
2018-11-13T08:25:47.278Z,71.66
2018-11-13T08:27:47.360Z,71.37
2018-11-13T08:28:47.412Z,71.85
2018-11-13T08:29:47.413Z,71.37
2018-11-13T08:30:47.680Z,71.56
2018-11-13T08:31:47.416Z,71.08
2018-11-13T08:32:47.462Z,71.18
2018-11-13T08:33:47.534Z,71.18
2018-11-13T08:34:47.656Z,71.37
2018-11-13T08:35:47.700Z,71.37
2018-11-13T08:36:47.661Z,71.28
2018-11-13T08:37:47.930Z,71.18
2018-11-13T08:38:47.697Z,71.28
2018-11-13T08:39:47.741Z,70.50
2018-11-13T08:40:47.710Z,70.70
2018-11-13T08:41:47.755Z,71.08
2018-11-13T08:42:47.774Z,71.18
2018-11-13T08:43:47.928Z,71.28
2018-11-13T08:44:48.191Z,70.89
2018-11-13T08:45:47.925Z,70.89
2018-11-13T08:46:47.904Z,70.98
2018-11-13T08:47:47.938Z,71.08
2018-11-13T08:49:48.052Z,70.98
2018-11-13T08:51:48.123Z,70.98
2018-11-13T08:52:48.098Z,70.98
2018-11-13T08:53:48.135Z,70.79
2018-11-13T08:54:48.168Z,70.89
2018-11-13T08:55:48.203Z,70.98
2018-11-13T08:56:48.282Z,70.79
2018-11-13T08:57:48.320Z,70.98
2018-11-13T08:59:48.630Z,71.28
2018-11-13T09:00:48.413Z,70.50
2018-11-13T09:02:48.476Z,70.79
2018-11-13T09:03:48.473Z,70.50
2018-11-13T09:04:48.546Z,70.60
2018-11-13T09:05:48.582Z,70.50
2018-11-13T09:06:48.610Z,70.12
2018-11-13T09:08:48.675Z,70.21
2018-11-13T09:09:48.728Z,70.21
2018-11-13T09:10:48.691Z,69.83
2018-11-13T09:11:48.821Z,70.21
2018-11-13T09:12:49.107Z,70.31
2018-11-13T09:13:48.805Z,69.73
2018-11-13T09:14:48.822Z,69.77
2018-11-13T09:15:48.865Z,69.64
2018-11-13T09:16:48.889Z,69.25
2018-11-13T09:17:49.023Z,69.15
2018-11-13T09:18:49.359Z,68.87
2018-11-13T09:20:49.018Z,69.67
2018-11-13T09:21:49.085Z,69.25
2018-11-13T09:23:49.172Z,69.35
2018-11-13T09:25:49.247Z,69.77
2018-11-13T09:26:49.275Z,69.57
2018-11-13T09:27:49.300Z,69.93
2018-11-13T09:28:49.283Z,70.12
2018-11-13T09:29:49.394Z,69.93
2018-11-13T09:31:49.791Z,69.29
2018-11-13T09:32:49.522Z,69.19
2018-11-13T09:33:49.493Z,68.99
2018-11-13T09:34:49.482Z,69.29
2018-11-13T09:36:49.591Z,68.77
2018-11-13T09:38:49.906Z,69.19
2018-11-13T09:39:49.640Z,68.90
2018-11-13T09:40:49.671Z,68.71
2018-11-13T09:41:49.707Z,68.42
2018-11-13T09:42:49.797Z,68.90
2018-11-13T09:43:49.769Z,68.23
2018-11-13T09:44:49.886Z,68.13
2018-11-13T09:45:50.258Z,68.32
2018-11-13T09:46:49.919Z,68.80
2018-11-13T09:47:49.998Z,68.61
2018-11-13T09:48:50.011Z,68.80
2018-11-13T09:49:50.015Z,68.77
2018-11-13T09:50:50.109Z,69.09
2018-11-13T09:51:50.043Z,69.38
2018-11-13T09:52:50.372Z,68.99
2018-11-13T09:53:50.204Z,69.38
2018-11-13T09:55:50.170Z,68.52
2018-11-13T09:56:50.262Z,68.61
2018-11-13T09:58:50.286Z,68.61
2018-11-13T09:59:50.637Z,68.32
2018-11-13T10:00:50.664Z,68.52
2018-11-13T10:01:51.037Z,68.80
2018-11-13T10:02:51.109Z,68.32
2018-11-13T10:03:51.519Z,67.94
2018-11-13T10:04:51.351Z,68.23
2018-11-13T10:05:50.682Z,68.99
2018-11-13T10:06:50.891Z,68.32
2018-11-13T10:07:50.704Z,68.32
2018-11-13T10:08:50.645Z,68.13
2018-11-13T10:09:50.674Z,68.71
2018-11-13T10:10:50.825Z,68.61
2018-11-13T10:11:50.741Z,68.13
2018-11-13T10:12:50.774Z,67.84
2018-11-13T10:14:51.092Z,67.55
2018-11-13T10:15:50.874Z,67.84
2018-11-13T10:17:51.097Z,67.94
2018-11-13T10:18:50.971Z,68.23
2018-11-13T10:19:50.950Z,68.23
2018-11-13T10:20:50.994Z,68.13
2018-11-13T10:21:51.319Z,68.32
2018-11-13T10:22:51.099Z,68.23
2018-11-13T10:23:51.137Z,68.32
2018-11-13T10:24:51.178Z,67.74
2018-11-13T10:25:51.201Z,67.65
2018-11-13T10:26:51.193Z,67.55
2018-11-13T10:27:51.349Z,68.04
2018-11-13T10:28:51.565Z,67.55
2018-11-13T10:29:51.375Z,67.84
2018-11-13T10:30:51.368Z,68.23
2018-11-13T10:31:51.353Z,68.13
2018-11-13T10:32:51.483Z,67.46
2018-11-13T10:33:51.468Z,67.36
2018-11-13T10:34:51.443Z,66.97
2018-11-13T10:35:51.829Z,67.07
2018-11-13T10:37:51.595Z,66.97
2018-11-13T10:38:51.587Z,67.16
2018-11-13T10:39:51.679Z,66.97
2018-11-13T10:40:51.791Z,67.07
2018-11-13T10:41:51.737Z,66.69
2018-11-13T10:42:51.781Z,66.49
2018-11-13T10:43:51.740Z,66.49
2018-11-13T10:44:51.793Z,66.97
2018-11-13T10:46:51.897Z,66.97
2018-11-13T10:47:51.923Z,67.16
2018-11-13T10:48:51.955Z,67.07
2018-11-13T10:50:51.976Z,67.16
2018-11-13T10:51:52.058Z,67.07
2018-11-13T10:52:52.088Z,66.97
2018-11-13T10:54:52.111Z,67.36
2018-11-13T10:56:52.522Z,67.16
2018-11-13T10:57:52.254Z,66.97
2018-11-13T10:58:52.297Z,67.55
2018-11-13T10:59:52.330Z,67.52
2018-11-13T11:00:52.351Z,67.94
2018-11-13T11:01:52.341Z,68.04
2018-11-13T11:03:52.407Z,67.94
2018-11-13T11:05:52.766Z,67.94
2018-11-13T11:06:52.556Z,68.42
2018-11-13T11:07:52.530Z,68.71
2018-11-13T11:08:52.569Z,68.42
2018-11-13T11:10:52.630Z,68.52
2018-11-13T11:11:52.712Z,67.94
2018-11-13T11:12:53.073Z,67.84
2018-11-13T11:13:52.996Z,67.84
2018-11-13T11:14:52.761Z,67.84
2018-11-13T11:15:52.856Z,67.84
2018-11-13T11:16:52.825Z,67.55
2018-11-13T11:17:52.861Z,67.07
2018-11-13T11:18:53.066Z,67.07
2018-11-13T11:19:53.254Z,66.69
2018-11-13T11:20:52.961Z,66.59
2018-11-13T11:21:53.110Z,66.69
2018-11-13T11:22:53.094Z,66.88
2018-11-13T11:23:53.149Z,66.59
2018-11-13T11:24:53.094Z,66.59
2018-11-13T11:25:53.178Z,66.88
2018-11-13T11:27:53.245Z,66.59
2018-11-13T11:28:53.271Z,66.78
2018-11-13T11:29:53.270Z,66.75
2018-11-13T11:30:53.375Z,66.36
2018-11-13T11:31:53.324Z,66.59
2018-11-13T11:32:53.667Z,66.75
2018-11-13T11:33:53.436Z,66.88
2018-11-13T11:34:53.468Z,66.39
2018-11-13T11:35:53.499Z,66.88
2018-11-13T11:36:53.535Z,66.27
2018-11-13T11:37:53.514Z,66.30
2018-11-13T11:38:53.695Z,65.91
2018-11-13T11:39:53.886Z,66.01
2018-11-13T11:40:53.613Z,65.98
2018-11-13T11:41:53.707Z,65.91
2018-11-13T11:42:53.744Z,66.01
2018-11-13T11:43:53.773Z,66.01
2018-11-13T11:44:53.753Z,66.01
2018-11-13T11:45:53.835Z,66.59
2018-11-13T11:46:54.216Z,66.30
2018-11-13T11:47:53.853Z,65.91
2018-11-13T11:48:53.878Z,66.20
2018-11-13T11:49:53.909Z,65.81
2018-11-13T11:50:53.998Z,66.11
2018-11-13T11:51:53.973Z,65.43
2018-11-13T11:52:54.019Z,65.81
2018-11-13T11:53:54.416Z,65.72
2018-11-13T11:54:54.151Z,65.81
2018-11-13T11:55:54.183Z,65.88
2018-11-13T11:56:54.140Z,66.20
2018-11-13T11:57:54.172Z,65.81
2018-11-13T11:58:54.227Z,65.53
2018-11-13T11:59:54.287Z,65.43
2018-11-13T12:00:54.579Z,65.53
2018-11-13T12:01:54.358Z,65.20
2018-11-13T12:02:54.364Z,65.43
2018-11-13T12:03:54.423Z,65.63
2018-11-13T12:04:54.456Z,65.63
2018-11-13T12:05:54.486Z,65.63
2018-11-13T12:06:54.475Z,65.33
2018-11-13T12:07:54.804Z,65.40
2018-11-13T12:08:54.536Z,65.43
2018-11-13T12:09:54.619Z,65.14
2018-11-13T12:10:54.652Z,65.11
2018-11-13T12:11:54.681Z,65.24
2018-11-13T12:12:54.720Z,64.95
2018-11-13T12:14:55.036Z,65.11
2018-11-13T12:15:54.814Z,65.14
2018-11-13T12:16:54.799Z,65.30
2018-11-13T12:17:54.878Z,65.69
2018-11-13T12:18:54.937Z,65.81
2018-11-13T12:19:54.900Z,65.81
2018-11-13T12:20:55.284Z,65.24
2018-11-13T12:21:55.075Z,65.33
2018-11-13T12:22:55.017Z,65.11
2018-11-13T12:23:55.048Z,65.33
2018-11-13T12:24:55.110Z,65.78
2018-11-13T12:25:55.136Z,65.53
2018-11-13T12:26:55.425Z,65.20
2018-11-13T12:27:55.182Z,65.30
2018-11-13T12:28:55.203Z,65.11
2018-11-13T12:29:55.283Z,65.20
2018-11-13T12:30:55.305Z,65.40
2018-11-13T12:31:55.299Z,65.24
2018-11-13T12:32:55.629Z,65.40
2018-11-13T12:33:55.415Z,65.40
2018-11-13T12:34:55.442Z,65.20
2018-11-13T12:35:55.434Z,65.40
2018-11-13T12:36:55.476Z,65.30
2018-11-13T12:37:55.541Z,65.11
2018-11-13T12:38:55.571Z,65.30
2018-11-13T12:39:55.854Z,65.50
2018-11-13T12:40:55.721Z,65.40
2018-11-13T12:41:55.698Z,65.69
2018-11-13T12:42:55.657Z,65.78
2018-11-13T12:43:55.735Z,65.78
2018-11-13T12:44:55.768Z,65.50
2018-11-13T12:45:55.753Z,65.40
2018-11-13T12:46:55.967Z,65.50
2018-11-13T12:47:55.822Z,65.40
2018-11-13T12:48:56.003Z,65.40
2018-11-13T12:50:55.913Z,65.40
2018-11-13T12:51:55.945Z,65.11
2018-11-13T12:52:55.977Z,65.30
2018-11-13T12:53:56.171Z,64.92
2018-11-13T12:54:56.092Z,65.20
2018-11-13T12:55:56.201Z,65.11
2018-11-13T12:56:56.109Z,65.11
2018-11-13T12:57:58.059Z,65.40
2018-11-13T12:58:56.473Z,65.20
2018-11-13T12:59:56.277Z,65.78
2018-11-13T13:00:56.241Z,65.30
2018-11-13T13:01:56.280Z,65.01
2018-11-13T13:02:56.358Z,65.30
2018-11-13T13:03:56.344Z,65.40
2018-11-13T13:04:56.373Z,65.30
2018-11-13T13:05:56.703Z,65.59
2018-11-13T13:07:56.539Z,65.11
2018-11-13T13:08:56.566Z,65.01
2018-11-13T13:09:56.539Z,65.20
2018-11-13T13:10:56.620Z,65.30
2018-11-13T13:11:56.650Z,65.01
2018-11-13T13:12:56.640Z,65.11
2018-11-13T13:13:56.718Z,65.20
2018-11-13T13:14:56.903Z,65.01
2018-11-13T13:15:56.787Z,65.50
2018-11-13T13:16:56.830Z,65.14
2018-11-13T13:17:57.107Z,65.11
2018-11-13T13:19:56.915Z,65.20
2018-11-13T13:20:56.902Z,65.20
2018-11-13T13:21:56.996Z,65.20
2018-11-13T13:22:56.982Z,65.53
2018-11-13T13:23:57.068Z,65.43
2018-11-13T13:28:57.218Z,65.14
2018-11-13T13:29:57.260Z,65.43
2018-11-13T13:31:57.427Z,65.33
2018-11-13T13:32:57.347Z,65.63
2018-11-13T13:33:57.334Z,65.63
2018-11-13T13:34:57.373Z,65.81
2018-11-13T13:35:57.696Z,65.14
2018-11-13T13:36:57.430Z,65.05
2018-11-13T13:37:57.517Z,65.53
2018-11-13T13:38:57.491Z,65.63
2018-11-13T13:39:57.530Z,65.14
2018-11-13T13:41:57.644Z,65.43
2018-11-13T13:42:57.927Z,65.24
2018-11-13T13:43:57.712Z,65.24
2018-11-13T13:44:57.693Z,65.24
2018-11-13T13:45:57.775Z,65.43
2018-11-13T13:46:57.796Z,65.33
2018-11-13T13:47:57.790Z,64.56
2018-11-13T13:48:57.873Z,64.95
2018-11-13T13:49:57.911Z,65.24
2018-11-13T13:50:57.945Z,65.14
2018-11-13T13:51:57.981Z,64.66
2018-11-13T13:52:58.009Z,64.95
2018-11-13T13:53:58.138Z,65.05